Time;durP1;ratioP1;P1;durP2;ratioP2;P2;SDS_P1;SDS_P2;PMS_P1;PMS_P2;Temp;Humidity;BMP_temperature;BMP_pressure;BME280_temperature;BME280_humidity;BME280_pressure;Samples;Min_cycle;Max_cycle;Signal;HPM_P1;HPM_P2
2021/03/10 00:00:07;;;;;;;26.88;17.25;;;5.00;99.90;;;;;;4939606;29;20471;-86
2021/03/10 00:02:33;;;;;;;30.75;19.77;;;4.90;99.90;;;;;;4939474;29;20110;-86
2021/03/10 00:04:59;;;;;;;32.35;19.65;;;4.90;99.90;;;;;;4939565;29;20503;-86
2021/03/10 00:07:25;;;;;;;23.70;15.60;;;4.60;99.90;;;;;;4939574;29;20089;-87
2021/03/10 00:09:52;;;;;;;26.08;15.23;;;4.60;99.90;;;;;;4956627;29;20019;-86
2021/03/10 00:12:18;;;;;;;26.63;17.27;;;4.60;99.90;;;;;;4939272;29;20050;-86
2021/03/10 00:14:44;;;;;;;28.10;19.25;;;4.60;99.90;;;;;;4939554;29;20467;-86
2021/03/10 00:17:10;;;;;;;31.75;20.27;;;4.60;99.90;;;;;;4939297;29;20110;-86
2021/03/10 00:19:36;;;;;;;30.17;18.33;;;4.40;99.90;;;;;;4956515;29;20034;-85
2021/03/10 00:22:02;;;;;;;31.67;20.52;;;4.50;99.90;;;;;;4956799;29;20031;-85
2021/03/10 00:24:27;;;;;;;31.63;20.65;;;4.40;99.90;;;;;;4956405;29;20106;-86
2021/03/10 00:26:53;;;;;;;25.33;17.02;;;4.30;99.90;;;;;;4956653;28;20023;-86
2021/03/10 00:29:18;;;;;;;29.42;17.35;;;4.20;99.90;;;;;;4939361;29;20047;-86
2021/03/10 00:31:44;;;;;;;29.35;19.52;;;4.20;99.90;;;;;;4939083;29;20023;-86
2021/03/10 00:34:10;;;;;;;25.48;16.10;;;4.20;99.90;;;;;;4939277;29;20058;-86
2021/03/10 00:36:35;;;;;;;22.10;15.65;;;4.20;99.90;;;;;;4939114;29;20388;-85
2021/03/10 00:39:02;;;;;;;33.10;20.73;;;4.40;99.90;;;;;;4939191;29;20122;-86
2021/03/10 00:41:28;;;;;;;29.55;18.70;;;4.40;99.90;;;;;;4939606;29;20523;-86
2021/03/10 00:43:53;;;;;;;28.80;17.85;;;4.30;99.90;;;;;;4939198;29;20117;-86
2021/03/10 00:46:19;;;;;;;25.48;16.70;;;4.30;99.90;;;;;;4956548;29;20031;-86
2021/03/10 00:48:45;;;;;;;26.80;15.82;;;4.30;99.90;;;;;;4938671;29;20032;-86
2021/03/10 00:51:10;;;;;;;30.48;20.98;;;4.30;99.90;;;;;;4956240;29;20036;-86
2021/03/10 00:53:36;;;;;;;32.20;20.95;;;4.30;99.90;;;;;;4938610;29;20113;-86
2021/03/10 00:56:02;;;;;;;36.45;20.27;;;4.30;99.90;;;;;;4938974;29;20077;-86
2021/03/10 00:58:28;;;;;;;30.88;19.25;;;4.10;99.90;;;;;;4956262;29;20027;-87
2021/03/10 01:00:53;;;;;;;29.40;18.52;;;4.10;99.90;;;;;;4939179;29;20023;-86
2021/03/10 01:03:19;;;;;;;24.17;15.15;;;4.20;99.90;;;;;;4938890;29;20043;-86
2021/03/10 01:05:45;;;;;;;29.70;19.65;;;4.30;99.90;;;;;;4938936;29;20031;-87
2021/03/10 01:08:11;;;;;;;32.03;20.88;;;4.30;99.90;;;;;;4938603;29;20391;-87
2021/03/10 01:10:38;;;;;;;25.33;15.95;;;4.30;99.90;;;;;;4938759;29;20109;-87
2021/03/10 01:13:04;;;;;;;29.73;21.25;;;4.20;99.90;;;;;;4938628;29;20034;-87
2021/03/10 01:15:30;;;;;;;27.23;16.63;;;4.20;99.90;;;;;;4938830;29;20023;-87
2021/03/10 01:17:55;;;;;;;28.63;19.55;;;4.20;99.90;;;;;;4938655;29;20019;-87
2021/03/10 01:20:23;;;;;;;28.75;16.77;;;4.20;99.90;;;;;;4938656;29;20414;-87
2021/03/10 01:22:48;;;;;;;26.88;16.73;;;4.30;99.90;;;;;;4938596;29;20041;-87
2021/03/10 01:25:15;;;;;;;27.30;16.52;;;4.40;99.90;;;;;;4938461;29;20446;-86
2021/03/10 01:27:41;;;;;;;22.98;14.77;;;4.40;99.90;;;;;;4955807;29;20031;-86
2021/03/10 01:30:09;;;;;;;26.52;17.95;;;4.50;99.90;;;;;;4938474;29;20024;-87
2021/03/10 01:32:35;;;;;;;25.80;15.85;;;4.30;99.90;;;;;;4938432;29;20081;-86
2021/03/10 01:35:02;;;;;;;28.13;19.17;;;4.30;99.90;;;;;;4939240;29;20106;-87
2021/03/10 01:37:28;;;;;;;26.42;16.50;;;4.10;99.90;;;;;;4955715;28;20023;-87
2021/03/10 01:39:54;;;;;;;29.45;18.75;;;4.10;99.90;;;;;;4941672;29;20041;-87
2021/03/10 01:42:22;;;;;;;26.20;16.20;;;4.00;99.90;;;;;;4941979;29;20023;-87
2021/03/10 01:44:47;;;;;;;27.23;18.80;;;4.00;99.90;;;;;;4942133;29;20027;-87
2021/03/10 01:47:15;;;;;;;24.85;16.40;;;3.90;99.90;;;;;;4959526;29;20035;-87
2021/03/10 01:49:41;;;;;;;25.15;17.90;;;3.90;99.90;;;;;;4941997;29;20059;-87
2021/03/10 01:52:08;;;;;;;27.17;16.48;;;3.80;99.90;;;;;;4959080;29;20117;-87
2021/03/10 01:54:35;;;;;;;32.05;19.92;;;3.80;99.90;;;;;;4942003;29;20027;-87
2021/03/10 01:57:02;;;;;;;33.50;20.60;;;3.70;99.90;;;;;;4942385;29;20031;-87
2021/03/10 01:59:27;;;;;;;26.52;17.20;;;3.70;99.90;;;;;;4942358;29;20362;-87
2021/03/10 02:01:53;;;;;;;24.27;16.10;;;3.70;99.90;;;;;;4941874;29;20037;-87
2021/03/10 02:04:19;;;;;;;27.17;18.33;;;3.80;99.90;;;;;;4941809;29;20031;-87
2021/03/10 02:06:53;;;;;;;30.60;18.67;;;3.80;99.90;;;;;;4959018;29;20065;-87
2021/03/10 02:09:48;;;;;;;31.45;21.20;;;3.70;99.90;;;;;;4959294;29;20027;-87
2021/03/10 02:12:14;;;;;;;;;;;3.50;99.90;;;;;;4935622;29;20028;-87
2021/03/10 02:15:02;;;;;;;30.77;19.33;;;3.80;99.90;;;;;;4941513;29;19907;-86
2021/03/10 02:17:33;;;;;;;29.58;19.42;;;3.50;99.90;;;;;;4942493;29;20019;-87
2021/03/10 02:20:18;;;;;;;31.15;18.73;;;3.60;99.90;;;;;;4941502;29;20122;-87
2021/03/10 02:23:07;;;;;;;22.35;15.05;;;3.80;99.90;;;;;;4941551;29;20027;-87
2021/03/10 02:26:12;;;;;;;30.83;19.17;;;3.90;99.90;;;;;;4958676;29;20031;-87
2021/03/10 02:28:39;;;;;;;22.90;15.27;;;3.90;99.90;;;;;;4941502;29;20108;-87
2021/03/10 02:31:07;;;;;;;32.95;20.25;;;4.00;99.90;;;;;;4941013;28;20027;-87
2021/03/10 02:33:36;;;;;;;38.03;22.80;;;4.10;99.90;;;;;;4941236;29;20023;-87
2021/03/10 02:36:07;;;;;;;28.67;18.13;;;4.00;99.90;;;;;;4941140;29;20039;-87
2021/03/10 02:38:33;;;;;;;27.88;18.05;;;4.00;99.90;;;;;;4941220;29;20391;-87
2021/03/10 02:41:00;;;;;;;28.35;17.63;;;4.10;99.90;;;;;;4941112;29;20023;-87
2021/03/10 02:43:26;;;;;;;36.95;23.30;;;4.10;99.90;;;;;;4941162;29;20069;-87
2021/03/10 02:45:54;;;;;;;30.38;20.55;;;4.20;99.90;;;;;;4941106;29;20545;-87
2021/03/10 02:48:22;;;;;;;32.00;19.98;;;4.10;99.90;;;;;;4941262;29;20019;-87
2021/03/10 02:50:48;;;;;;;39.88;24.13;;;4.20;99.90;;;;;;4939528;29;20506;-87
2021/03/10 02:53:16;;;;;;;37.75;21.27;;;3.90;99.90;;;;;;4940767;29;20038;-87
2021/03/10 02:55:41;;;;;;;40.47;24.35;;;3.80;99.90;;;;;;4941437;29;20027;-87
2021/03/10 02:58:08;;;;;;;36.92;22.63;;;3.80;99.90;;;;;;4940852;29;20031;-87
2021/03/10 03:00:35;;;;;;;40.10;22.38;;;3.70;99.90;;;;;;4940785;29;20118;-87
2021/03/10 03:03:01;;;;;;;44.40;24.85;;;3.70;99.90;;;;;;4941086;29;20118;-87
2021/03/10 03:05:27;;;;;;;37.50;22.38;;;3.50;99.90;;;;;;4940772;29;20066;-87
2021/03/10 03:07:53;;;;;;;37.53;23.08;;;3.40;99.90;;;;;;4940595;29;20027;-87
2021/03/10 03:10:22;;;;;;;37.40;22.30;;;3.40;99.90;;;;;;4940641;29;20061;-87
2021/03/10 03:12:49;;;;;;;35.33;22.42;;;3.40;99.90;;;;;;4940424;29;20421;-87
2021/03/10 03:15:16;;;;;;;39.97;23.27;;;3.30;99.90;;;;;;4940451;29;20117;-87
2021/03/10 03:17:43;;;;;;;37.38;23.13;;;3.20;99.90;;;;;;4957577;29;20036;-87
2021/03/10 03:20:11;;;;;;;40.05;22.73;;;3.20;99.90;;;;;;4957544;29;20023;-87
2021/03/10 03:22:43;;;;;;;39.38;23.15;;;3.40;99.90;;;;;;4940007;29;20039;-87
2021/03/10 03:25:13;;;;;;;32.42;20.40;;;3.30;99.90;;;;;;4939915;29;20031;-87
2021/03/10 03:27:40;;;;;;;39.63;22.77;;;3.50;99.90;;;;;;4939700;29;20032;-87
2021/03/10 03:30:08;;;;;;;26.10;16.95;;;3.50;99.90;;;;;;4956932;29;20030;-87
2021/03/10 03:32:36;;;;;;;37.10;22.08;;;3.60;99.90;;;;;;4938727;29;20035;-87
2021/03/10 03:35:02;;;;;;;37.13;22.38;;;3.90;99.90;;;;;;4939728;29;20019;-87
2021/03/10 03:37:28;;;;;;;36.40;22.08;;;3.80;99.90;;;;;;4956791;29;20027;-87
2021/03/10 03:39:54;;;;;;;30.40;17.02;;;3.70;99.90;;;;;;4939496;29;20033;-87
2021/03/10 03:42:20;;;;;;;33.97;21.00;;;3.90;99.90;;;;;;4956689;29;20111;-87
2021/03/10 03:44:46;;;;;;;30.80;18.60;;;3.90;99.90;;;;;;4939513;29;20505;-87
2021/03/10 03:47:13;;;;;;;36.13;23.30;;;3.60;99.90;;;;;;4939421;29;20035;-87
2021/03/10 03:49:43;;;;;;;33.78;20.23;;;3.60;99.90;;;;;;4956393;29;20057;-87
2021/03/10 03:52:10;;;;;;;33.60;21.42;;;3.50;99.90;;;;;;4939192;29;20031;-87
2021/03/10 03:54:36;;;;;;;31.75;18.92;;;3.60;99.90;;;;;;4956487;29;20364;-88
2021/03/10 03:57:02;;;;;;;29.80;18.67;;;3.60;99.90;;;;;;4939479;29;20078;-87
2021/03/10 03:59:28;;;;;;;29.60;18.02;;;3.60;99.90;;;;;;4939185;29;20023;-87
2021/03/10 04:01:53;;;;;;;30.25;19.10;;;3.80;99.90;;;;;;4938746;29;20114;-87
2021/03/10 04:04:19;;;;;;;29.90;18.67;;;4.00;99.90;;;;;;4956235;29;20480;-87
2021/03/10 04:06:49;;;;;;;36.78;21.13;;;4.10;99.90;;;;;;4939068;29;20027;-87
2021/03/10 04:09:15;;;;;;;27.20;17.35;;;4.20;99.90;;;;;;4938986;29;20498;-88
2021/03/10 04:11:46;;;;;;;30.45;19.20;;;4.20;99.90;;;;;;4938899;29;20027;-87
2021/03/10 04:14:12;;;;;;;30.60;20.02;;;4.10;99.90;;;;;;4956156;29;20472;-88
2021/03/10 04:16:39;;;;;;;34.65;20.10;;;4.20;99.90;;;;;;4956054;29;20078;-87
2021/03/10 04:19:05;;;;;;;35.03;21.27;;;4.20;99.90;;;;;;4956046;29;20027;-87
2021/03/10 04:21:31;;;;;;;32.45;20.38;;;4.30;99.90;;;;;;4938819;29;20158;-88
2021/03/10 04:23:57;;;;;;;29.38;19.05;;;4.30;99.90;;;;;;4938704;29;20126;-87
2021/03/10 04:26:23;;;;;;;44.17;24.52;;;4.30;99.90;;;;;;4938714;29;20038;-87
2021/03/10 04:28:49;;;;;;;32.33;19.85;;;4.10;99.90;;;;;;4938699;29;20024;-87
2021/03/10 04:31:15;;;;;;;35.92;22.40;;;4.10;99.90;;;;;;4938490;28;20035;-87
2021/03/10 04:33:40;;;;;;;42.35;23.88;;;4.10;99.90;;;;;;4938698;29;20026;-87
2021/03/10 04:36:07;;;;;;;31.58;20.10;;;4.10;99.90;;;;;;4938679;29;20436;-87
2021/03/10 04:38:33;;;;;;;32.40;21.25;;;4.00;99.90;;;;;;4938644;29;20027;-88
2021/03/10 04:40:59;;;;;;;29.30;18.83;;;4.10;99.90;;;;;;4938604;29;20024;-87
2021/03/10 04:43:24;;;;;;;34.25;19.95;;;4.20;99.90;;;;;;4955927;29;20019;-87
2021/03/10 04:45:50;;;;;;;36.42;20.83;;;4.20;99.90;;;;;;4938520;29;20054;-88
2021/03/10 04:48:16;;;;;;;33.40;20.02;;;4.10;99.90;;;;;;4955691;29;20031;-87
2021/03/10 04:50:42;;;;;;;28.50;18.95;;;4.10;99.90;;;;;;4938293;29;20070;-87
2021/03/10 04:53:07;;;;;;;35.22;21.85;;;4.10;99.90;;;;;;4938355;29;20034;-87
2021/03/10 04:55:33;;;;;;;33.28;20.83;;;4.10;99.90;;;;;;4938399;29;20030;-88
2021/03/10 04:57:59;;;;;;;31.48;20.77;;;4.10;99.90;;;;;;4938395;29;20031;-87
2021/03/10 05:00:25;;;;;;;34.47;22.05;;;4.10;99.90;;;;;;4938272;29;20081;-87
2021/03/10 05:02:50;;;;;;;41.83;24.30;;;4.00;99.90;;;;;;4955484;29;20030;-88
2021/03/10 05:05:16;;;;;;;41.45;24.73;;;4.10;99.90;;;;;;4938312;29;20035;-88
2021/03/10 05:07:42;;;;;;;42.85;23.98;;;3.90;99.90;;;;;;4938280;29;20043;-88
2021/03/10 05:10:08;;;;;;;43.38;24.60;;;3.80;99.90;;;;;;4938265;29;20027;-87
2021/03/10 05:12:34;;;;;;;36.15;21.67;;;3.70;99.90;;;;;;4938129;29;20391;-88
2021/03/10 05:15:00;;;;;;;42.53;24.08;;;3.80;99.90;;;;;;4941786;29;20114;-87
2021/03/10 05:17:27;;;;;;;48.60;27.70;;;3.70;99.90;;;;;;4942090;29;20047;-87
2021/03/10 05:19:57;;;;;;;36.50;22.35;;;3.60;99.90;;;;;;4942127;29;20031;-87
2021/03/10 05:22:24;;;;;;;35.72;21.95;;;3.60;99.90;;;;;;4942130;29;20126;-88
2021/03/10 05:24:49;;;;;;;48.90;25.98;;;3.70;99.90;;;;;;4941946;29;20042;-87
2021/03/10 05:27:16;;;;;;;39.78;21.98;;;3.70;99.90;;;;;;4941995;29;20031;-87
2021/03/10 05:29:42;;;;;;;41.28;23.50;;;3.60;99.90;;;;;;4942770;29;20077;-87
2021/03/10 05:32:08;;;;;;;35.50;23.08;;;3.60;99.90;;;;;;4959289;28;20035;-87
2021/03/10 05:34:34;;;;;;;36.20;21.65;;;3.70;99.90;;;;;;4941884;29;20023;-87
2021/03/10 05:37:00;;;;;;;37.78;22.40;;;3.90;99.90;;;;;;4941760;29;20023;-88
2021/03/10 05:39:26;;;;;;;37.75;23.48;;;4.00;99.90;;;;;;4941772;29;20028;-87
2021/03/10 05:41:52;;;;;;;41.40;25.27;;;3.80;99.90;;;;;;4959005;29;20031;-88
2021/03/10 05:44:18;;;;;;;38.83;22.95;;;3.60;99.90;;;;;;4941774;29;20101;-88
2021/03/10 05:46:44;;;;;;;42.75;26.30;;;3.50;99.90;;;;;;4941837;29;20051;-88
2021/03/10 05:49:10;;;;;;;39.05;23.58;;;3.40;99.90;;;;;;4941468;29;20053;-87
2021/03/10 05:51:37;;;;;;;40.58;24.42;;;3.40;99.90;;;;;;4959020;29;20042;-88
2021/03/10 05:54:04;;;;;;;41.08;26.02;;;3.50;99.90;;;;;;4941673;29;20439;-88
2021/03/10 05:56:30;;;;;;;33.92;20.42;;;3.70;99.90;;;;;;4941557;29;20023;-88
2021/03/10 05:59:01;;;;;;;38.03;24.83;;;3.70;99.90;;;;;;4941458;29;20029;-88
2021/03/10 06:01:27;;;;;;;45.55;26.92;;;4.00;99.90;;;;;;4941613;29;20037;-87
2021/03/10 06:03:55;;;;;;;32.00;20.05;;;4.00;99.90;;;;;;4941552;29;20055;-87
2021/03/10 06:06:22;;;;;;;36.78;21.52;;;4.10;99.90;;;;;;4942057;29;20031;-88
2021/03/10 06:08:48;;;;;;;40.60;24.95;;;4.20;99.90;;;;;;4941418;29;20034;-88
2021/03/10 06:11:26;;;;;;;49.30;26.40;;;4.10;99.90;;;;;;4941764;29;20031;-88
2021/03/10 06:13:54;;;;;;;30.55;19.48;;;4.00;99.90;;;;;;4941570;29;20554;-88
2021/03/10 06:16:24;;;;;;;43.08;26.30;;;4.10;99.90;;;;;;4941383;29;20118;-89
2021/03/10 06:19:04;;;;;;;49.35;27.35;;;4.10;99.90;;;;;;4941598;29;20110;-88
2021/03/10 06:21:30;;;;;;;40.13;24.95;;;4.00;99.90;;;;;;4941089;29;20027;-88
2021/03/10 06:24:01;;;;;;;39.55;23.92;;;4.00;99.90;;;;;;4940827;28;20106;-88
2021/03/10 06:26:28;;;;;;;43.45;26.35;;;4.10;99.90;;;;;;4941226;29;20034;-88
2021/03/10 06:28:56;;;;;;;40.95;25.48;;;4.00;99.90;;;;;;4941559;29;20027;-88
2021/03/10 06:31:31;;;;;;;43.03;25.55;;;4.00;99.90;;;;;;4941243;28;20086;-88
2021/03/10 06:34:11;;;;;;;43.35;25.42;;;3.90;99.90;;;;;;4940989;29;20074;-89
2021/03/10 06:36:47;;;;;;;44.28;25.05;;;3.80;99.90;;;;;;4941375;29;20078;-88
2021/03/10 06:39:26;;;;;;;44.42;24.77;;;3.90;99.90;;;;;;4942078;29;20474;-89
2021/03/10 06:41:52;;;;;;;46.20;27.38;;;3.80;99.90;;;;;;4940904;29;20027;-88
2021/03/10 06:44:26;;;;;;;42.83;24.52;;;3.90;99.90;;;;;;4941759;29;20335;-88
2021/03/10 06:46:55;;;;;;;38.78;23.40;;;4.10;99.90;;;;;;4941148;29;20086;-89
2021/03/10 06:49:22;;;;;;;40.85;23.42;;;4.30;99.90;;;;;;4941286;29;20514;-88
2021/03/10 06:51:55;;;;;;;43.42;25.25;;;4.30;99.90;;;;;;4941523;29;20035;-88
2021/03/10 06:54:22;;;;;;;45.00;27.92;;;4.20;99.90;;;;;;4958037;29;20023;-88
2021/03/10 06:57:04;;;;;;;39.25;23.40;;;4.10;99.90;;;;;;4940851;29;20588;-88
2021/03/10 06:59:44;;;;;;;38.45;22.95;;;4.10;99.90;;;;;;4941407;29;20170;-89
2021/03/10 07:02:27;;;;;;;39.05;23.58;;;4.20;99.90;;;;;;4940657;29;20026;-88
2021/03/10 07:04:59;;;;;;;39.50;24.92;;;4.10;99.90;;;;;;4940279;29;20035;-88
2021/03/10 07:07:27;;;;;;;40.03;23.48;;;4.20;99.90;;;;;;4941085;29;20023;-88
2021/03/10 07:09:53;;;;;;;37.70;22.02;;;4.30;99.90;;;;;;4941325;29;20455;-88
2021/03/10 07:12:21;;;;;;;55.40;29.48;;;4.60;99.90;;;;;;4940118;29;20027;-88
2021/03/10 07:14:48;;;;;;;44.05;23.77;;;4.60;99.90;;;;;;4940291;29;20024;-89
2021/03/10 07:17:19;;;;;;;56.17;28.42;;;4.60;99.90;;;;;;4940350;29;20081;-88
2021/03/10 07:19:45;;;;;;;42.47;24.77;;;4.70;99.90;;;;;;4940956;29;20459;-88
2021/03/10 07:22:34;;;;;;;39.22;23.55;;;4.70;99.90;;;;;;4940083;29;20061;-90
2021/03/10 07:25:05;;;;;;;43.10;25.45;;;4.60;99.90;;;;;;4940343;29;20028;-90
2021/03/10 07:27:55;;;;;;;50.92;28.80;;;4.70;99.90;;;;;;4940119;29;20369;-89
2021/03/10 07:30:38;;;;;;;50.47;29.20;;;4.80;99.90;;;;;;4940024;29;20118;-89
2021/03/10 07:33:10;;;;;;;42.47;24.10;;;4.90;99.90;;;;;;4939978;29;20110;-89
2021/03/10 07:35:58;;;;;;;47.50;28.65;;;5.00;99.90;;;;;;4939611;28;20027;-90
2021/03/10 07:38:37;;;;;;;51.30;28.67;;;5.00;99.90;;;;;;4940458;29;20023;-89
2021/03/10 07:41:07;;;;;;;49.00;28.10;;;5.10;99.90;;;;;;4939873;29;20027;-89
2021/03/10 07:43:52;;;;;;;42.38;25.95;;;5.10;99.90;;;;;;4939707;29;20372;-90
2021/03/10 07:46:28;;;;;;;51.75;30.98;;;5.10;99.90;;;;;;4940694;29;20451;-90
2021/03/10 07:48:55;;;;;;;58.78;31.52;;;5.20;99.90;;;;;;4940287;29;20094;-90
2021/03/10 07:52:02;;;;;;;55.63;30.38;;;5.20;99.90;;;;;;4940787;29;20376;-89
2021/03/10 07:54:28;;;;;;;56.45;32.15;;;5.20;99.90;;;;;;4932094;29;20039;-89
2021/03/10 07:57:16;;;;;;;62.85;32.85;;;5.10;99.90;;;;;;4939457;29;20392;-90
2021/03/10 08:00:14;;;;;;;67.72;38.00;;;5.00;99.90;;;;;;4940385;29;20460;-90
2021/03/10 08:02:43;;;;;;;66.25;35.55;;;5.00;99.90;;;;;;4929281;29;20415;-90
2021/03/10 08:05:24;;;;;;;61.50;34.17;;;5.00;99.90;;;;;;4939628;29;20023;-90
2021/03/10 08:08:04;;;;;;;72.15;37.60;;;5.10;99.90;;;;;;4939937;29;20027;-88
2021/03/10 08:10:30;;;;;;;66.10;34.80;;;5.10;99.90;;;;;;4939283;29;20035;-88
2021/03/10 08:12:55;;;;;;;66.95;35.35;;;5.20;99.90;;;;;;4939227;29;20486;-88
2021/03/10 08:15:35;;;;;;;70.65;36.17;;;5.30;99.90;;;;;;4939117;29;20110;-88
2021/03/10 08:18:03;;;;;;;72.07;35.97;;;5.40;99.90;;;;;;4939318;29;20027;-88
2021/03/10 08:20:35;;;;;;;72.95;36.97;;;5.40;99.90;;;;;;4940382;29;20490;-89
2021/03/10 08:23:04;;;;;;;59.70;31.98;;;5.50;99.90;;;;;;4939301;29;20035;-88
2021/03/10 08:25:49;;;;;;;74.63;39.30;;;5.50;99.90;;;;;;4939232;29;20036;-89
2021/03/10 08:28:44;;;;;;;61.10;32.97;;;5.40;99.90;;;;;;4939296;29;20042;-88
2021/03/10 08:31:54;;;;;;;69.50;36.33;;;5.40;99.90;;;;;;4938851;28;20558;-89
2021/03/10 08:34:37;;;;;;;64.90;35.40;;;5.40;99.90;;;;;;4938688;29;20023;-88
2021/03/10 08:37:23;;;;;;;55.90;30.42;;;5.40;99.90;;;;;;4938642;29;20085;-88
2021/03/10 08:39:58;;;;;;;53.67;29.83;;;5.40;99.90;;;;;;4939386;29;20540;-88
2021/03/10 08:42:27;;;;;;;57.88;34.00;;;5.40;99.90;;;;;;4939158;29;20122;-88
2021/03/10 08:44:55;;;;;;;55.60;29.55;;;5.50;99.90;;;;;;4938783;29;20081;-89
2021/03/10 08:47:26;;;;;;;76.40;37.97;;;5.50;99.90;;;;;;4938921;29;20031;-88
2021/03/10 08:50:00;;;;;;;75.05;38.70;;;5.40;99.90;;;;;;4938966;29;20051;-88
2021/03/10 08:52:27;;;;;;;71.28;36.25;;;5.50;99.90;;;;;;4938731;29;20031;-89
2021/03/10 08:54:53;;;;;;;71.22;34.95;;;5.50;99.90;;;;;;4955923;29;20035;-88
2021/03/10 08:57:36;;;;;;;71.53;37.10;;;5.60;99.90;;;;;;4939289;29;20159;-88
2021/03/10 09:00:33;;;;;;;49.33;27.05;;;5.60;99.90;;;;;;4938727;29;20042;-89
2021/03/10 09:03:18;;;;;;;67.57;35.50;;;5.70;99.90;;;;;;4938390;29;20031;-88
2021/03/10 09:05:46;;;;;;;59.53;32.55;;;5.80;99.90;;;;;;4939136;29;20368;-89
2021/03/10 09:08:14;;;;;;;62.67;33.38;;;5.90;99.90;;;;;;4939101;29;20085;-88
2021/03/10 09:11:14;;;;;;;53.85;30.70;;;6.00;99.90;;;;;;4939117;29;20502;-89
2021/03/10 09:13:40;;;;;;;63.13;31.35;;;6.00;99.90;;;;;;4919893;29;20174;-88
2021/03/10 09:16:10;;;;;;;54.80;30.42;;;6.10;99.90;;;;;;4938353;29;20030;-88
2021/03/10 09:18:36;;;;;;;49.78;29.85;;;6.10;99.90;;;;;;4938553;29;20035;-87
2021/03/10 09:21:02;;;;;;;45.55;28.27;;;6.20;99.90;;;;;;4938713;29;20023;-88
2021/03/10 09:23:35;;;;;;;57.58;30.70;;;6.20;99.90;;;;;;4938681;29;20034;-88
2021/03/10 09:26:01;;;;;;;47.80;27.33;;;6.30;99.90;;;;;;4938583;29;20038;-89
2021/03/10 09:28:34;;;;;;;50.05;27.45;;;6.40;99.90;;;;;;4938887;29;20394;-88
2021/03/10 09:31:16;;;;;;;50.07;27.50;;;6.40;99.90;;;;;;4938529;28;20027;-89
2021/03/10 09:33:48;;;;;;;45.33;26.15;;;6.50;99.90;;;;;;4938696;29;20265;-88
2021/03/10 09:36:23;;;;;;;42.97;24.05;;;6.60;99.90;;;;;;4938134;29;20539;-88
2021/03/10 09:38:52;;;;;;;44.47;26.10;;;6.80;99.90;;;;;;4955361;29;20023;-89
2021/03/10 09:41:23;;;;;;;49.25;27.73;;;6.70;99.90;;;;;;4938008;29;20055;-89
2021/03/10 09:44:01;;;;;;;46.85;26.17;;;6.70;99.90;;;;;;4955665;29;20023;-88
2021/03/10 09:46:38;;;;;;;43.28;24.65;;;7.00;99.90;;;;;;4939184;29;20023;-89
2021/03/10 09:53:41;;;;;;;34.35;19.15;;;8.20;99.90;;;;;;4933189;29;20454;-89
2021/03/10 09:56:12;;;;;;;31.50;16.73;;;8.60;99.90;;;;;;4901654;29;20062;-89
2021/03/10 09:58:56;;;;;;;28.15;17.05;;;8.80;99.90;;;;;;4900040;29;20036;-89
2021/03/10 10:01:24;;;;;;;33.55;17.88;;;8.60;99.90;;;;;;4904313;29;20369;-88
2021/03/10 10:03:51;;;;;;;32.28;18.80;;;8.50;99.90;;;;;;4903384;29;20035;-87
2021/03/10 10:06:19;;;;;;;27.77;18.38;;;8.20;99.90;;;;;;4903881;29;20129;-87
2021/03/10 10:08:46;;;;;;;31.38;19.60;;;7.80;99.90;;;;;;4904174;29;20027;-87
2021/03/10 10:11:13;;;;;;;30.67;18.67;;;7.40;99.90;;;;;;4903177;29;20402;-87
2021/03/10 10:13:47;;;;;;;32.20;19.33;;;7.30;99.90;;;;;;4904043;29;20024;-88
2021/03/10 10:16:13;;;;;;;32.03;19.85;;;7.10;99.90;;;;;;4903548;29;20028;-87
2021/03/10 10:18:39;;;;;;;36.42;19.40;;;7.20;99.90;;;;;;4903203;29;20084;-88
2021/03/10 10:21:06;;;;;;;29.50;18.38;;;7.20;99.90;;;;;;4903172;29;20024;-87
2021/03/10 10:23:32;;;;;;;28.20;17.90;;;7.20;99.90;;;;;;4903332;29;20035;-87
2021/03/10 10:25:57;;;;;;;34.88;19.20;;;7.10;99.90;;;;;;4903060;29;20028;-87
2021/03/10 10:28:23;;;;;;;27.92;17.77;;;7.20;99.90;;;;;;4903104;29;20035;-88
2021/03/10 10:30:49;;;;;;;33.28;18.92;;;7.30;99.90;;;;;;4919909;29;20032;-87
2021/03/10 10:33:15;;;;;;;29.60;17.42;;;7.40;99.90;;;;;;4919624;29;20039;-87
2021/03/10 10:35:41;;;;;;;24.75;15.00;;;7.30;99.90;;;;;;4902824;29;20024;-87
2021/03/10 10:38:08;;;;;;;27.15;16.65;;;7.30;99.90;;;;;;4902788;29;20028;-86
2021/03/10 10:40:36;;;;;;;32.33;19.73;;;7.30;99.90;;;;;;4919749;29;20035;-87
2021/03/10 10:43:02;;;;;;;36.65;20.23;;;7.30;99.90;;;;;;4902783;29;20034;-87
2021/03/10 10:45:28;;;;;;;37.78;20.77;;;7.10;99.90;;;;;;4903036;29;20067;-90
2021/03/10 10:47:54;;;;;;;32.72;17.70;;;7.10;99.90;;;;;;4902687;29;20134;-87
2021/03/10 10:50:20;;;;;;;29.00;17.13;;;7.10;99.90;;;;;;4919414;29;20627;-86
2021/03/10 10:52:48;;;;;;;32.67;18.15;;;7.20;99.90;;;;;;4902754;29;20119;-87
2021/03/10 10:55:17;;;;;;;28.73;17.27;;;7.10;99.90;;;;;;4931041;29;20527;-87
2021/03/10 10:58:06;;;;;;;30.83;17.05;;;7.30;99.90;;;;;;4940609;29;20039;-87
2021/03/10 11:00:32;;;;;;;27.40;16.70;;;7.40;99.90;;;;;;4958118;29;20029;-87
2021/03/10 11:02:57;;;;;;;25.42;15.55;;;7.40;99.90;;;;;;4940220;29;20447;-87
2021/03/10 11:05:23;;;;;;;26.67;16.42;;;7.50;99.90;;;;;;4940331;29;20391;-87
2021/03/10 11:07:52;;;;;;;19.02;12.35;;;7.70;99.90;;;;;;4941378;29;20456;-88
2021/03/10 11:10:18;;;;;;;15.52;9.40;;;7.80;99.90;;;;;;4940463;28;20085;-87
2021/03/10 11:12:44;;;;;;;14.02;8.27;;;7.90;99.90;;;;;;4957606;29;20448;-87
2021/03/10 11:15:15;;;;;;;18.30;9.73;;;8.10;99.90;;;;;;4940725;29;20026;-87
2021/03/10 11:17:40;;;;;;;14.50;9.02;;;8.40;99.90;;;;;;4941376;29;20042;-87
2021/03/10 11:20:08;;;;;;;16.92;10.23;;;8.60;99.90;;;;;;4940987;29;20027;-88
2021/03/10 11:22:34;;;;;;;12.98;8.25;;;8.60;99.90;;;;;;4940751;29;20031;-88
2021/03/10 11:28:27;;;;;;;14.55;6.82;;;8.50;99.90;;;;;;4957701;29;20498;-88
2021/03/10 11:30:53;;;;;;;8.77;5.13;;;8.40;99.90;;;;;;4940518;29;20027;-88
2021/03/10 11:33:19;;;;;;;13.90;7.20;;;8.30;99.90;;;;;;4940711;29;20085;-88
2021/03/10 11:35:45;;;;;;;10.73;7.03;;;8.20;99.90;;;;;;4941073;29;20353;-87
2021/03/10 11:38:12;;;;;;;11.77;7.85;;;8.20;99.90;;;;;;4940106;29;20034;-87
2021/03/10 11:40:38;;;;;;;22.40;12.85;;;8.30;99.90;;;;;;4944807;29;20058;-88
2021/03/10 11:43:04;;;;;;;18.80;11.60;;;8.40;99.90;;;;;;4940942;29;20061;-87
2021/03/10 11:45:33;;;;;;;19.92;11.20;;;8.60;99.90;;;;;;4940091;29;20034;-87
2021/03/10 11:48:08;;;;;;;22.83;11.48;;;8.90;99.90;;;;;;4940850;29;20155;-88
2021/03/10 11:50:40;;;;;;;19.33;11.50;;;9.30;99.90;;;;;;4940334;29;20133;-88
2021/03/10 11:53:20;;;;;;;17.25;10.90;;;9.90;99.90;;;;;;4940794;29;20035;-87
2021/03/10 11:55:50;;;;;;;13.57;8.88;;;9.90;99.90;;;;;;4936597;29;20048;-87
2021/03/10 11:58:26;;;;;;;14.55;8.25;;;10.20;99.90;;;;;;4936780;29;20079;-87
2021/03/10 12:01:05;;;;;;;11.70;7.40;;;10.40;99.90;;;;;;4939793;29;20027;-87
2021/03/10 12:03:31;;;;;;;12.50;7.80;;;10.40;99.90;;;;;;4939537;29;20027;-87
2021/03/10 12:05:58;;;;;;;11.77;7.55;;;10.10;99.80;;;;;;4939670;29;20035;-87
2021/03/10 12:08:29;;;;;;;11.73;7.90;;;9.90;99.90;;;;;;4939721;29;20039;-88
2021/03/10 12:10:59;;;;;;;12.15;8.45;;;9.80;99.90;;;;;;4940217;29;20035;-88
2021/03/10 12:13:27;;;;;;;13.07;7.30;;;9.60;99.90;;;;;;4939344;29;20033;-88
2021/03/10 12:15:57;;;;;;;11.77;7.05;;;9.40;99.90;;;;;;4939491;29;20332;-87
2021/03/10 12:18:23;;;;;;;10.65;6.35;;;9.00;99.90;;;;;;4939509;29;20027;-87
2021/03/10 12:20:50;;;;;;;10.25;7.13;;;8.90;99.90;;;;;;4940099;29;20024;-87
2021/03/10 12:23:18;;;;;;;10.65;6.57;;;8.60;99.90;;;;;;4939897;29;20074;-87
2021/03/10 12:25:45;;;;;;;11.98;6.78;;;8.60;99.90;;;;;;4939658;29;20027;-88
2021/03/10 12:28:10;;;;;;;12.35;7.25;;;8.40;99.90;;;;;;4939447;29;20030;-87
2021/03/10 12:30:40;;;;;;;20.85;13.32;;;8.20;99.90;;;;;;4939115;29;20031;-87
2021/03/10 12:33:06;;;;;;;15.45;9.60;;;8.30;99.90;;;;;;4938603;29;20027;-87
2021/03/10 12:35:37;;;;;;;11.57;7.78;;;8.30;99.90;;;;;;4939335;29;20030;-88
2021/03/10 12:38:03;;;;;;;13.38;7.10;;;8.30;99.90;;;;;;4940007;29;20023;-88
2021/03/10 12:40:29;;;;;;;10.18;6.20;;;8.30;99.90;;;;;;4939619;29;20034;-88
2021/03/10 12:42:55;;;;;;;11.90;7.35;;;8.20;99.90;;;;;;4939589;29;20027;-89
2021/03/10 12:45:21;;;;;;;9.00;6.60;;;8.10;99.90;;;;;;4939662;29;20114;-88
2021/03/10 12:47:48;;;;;;;12.13;7.32;;;8.20;99.90;;;;;;4939091;29;20027;-88
2021/03/10 12:50:17;;;;;;;10.18;6.70;;;8.20;99.90;;;;;;4939612;29;20090;-88
2021/03/10 12:52:42;;;;;;;9.90;6.22;;;8.20;99.90;;;;;;4939506;29;20472;-87
2021/03/10 12:55:09;;;;;;;12.90;7.30;;;8.20;99.90;;;;;;4939112;29;20043;-87
2021/03/10 12:57:34;;;;;;;11.25;7.10;;;8.20;99.90;;;;;;4922834;29;20499;-87